Time;durP1;ratioP1;P1;durP2;ratioP2;P2;SDS_P1;SDS_P2;PMS_P1;PMS_P2;Temp;Humidity;BMP_temperature;BMP_pressure;BME280_temperature;BME280_humidity;BME280_pressure;Samples;Min_cycle;Max_cycle;Signal;HPM_P1;HPM_P2
2022/08/17 00:01:11;;;;;;;25.15;15.03;;;;;;;25.23;100.00;100195.68;1724713;81;21490;-68
2022/08/17 00:03:43;;;;;;;29.02;15.00;;;;;;;25.12;100.00;100192.40;1724726;81;21112;-68
2022/08/17 00:06:14;;;;;;;29.65;15.58;;;;;;;25.04;100.00;100188.95;1731782;81;21013;-68
2022/08/17 00:08:49;;;;;;;30.68;15.10;;;;;;;24.98;100.00;100197.05;1739181;81;21034;-68
2022/08/17 00:11:24;;;;;;;27.32;15.70;;;;;;;24.96;100.00;100203.80;1733814;81;21620;-68
2022/08/17 00:13:56;;;;;;;26.23;15.32;;;;;;;24.93;100.00;100203.30;1742856;81;21580;-68
2022/08/17 00:16:33;;;;;;;23.25;15.78;;;;;;;24.89;100.00;100200.19;1742432;81;21565;-69
2022/08/17 00:18:59;;;;;;;27.22;15.13;;;;;;;24.86;100.00;100198.38;1718800;81;21549;-68
2022/08/17 00:21:27;;;;;;;23.40;15.50;;;;;;;24.90;100.00;100197.89;1722525;81;21112;-68
2022/08/17 00:23:54;;;;;;;26.97;15.25;;;;;;;24.89;100.00;100207.27;1741841;81;21042;-68
2022/08/17 00:26:23;;;;;;;25.95;14.95;;;;;;;24.87;100.00;100207.93;1736083;80;21065;-68
2022/08/17 00:28:50;;;;;;;22.13;15.30;;;;;;;24.87;100.00;100205.30;1744137;80;21002;-68
2022/08/17 00:31:18;;;;;;;28.65;15.60;;;;;;;24.84;100.00;100207.78;1741440;81;21092;-68
2022/08/17 00:33:45;;;;;;;22.48;14.78;;;;;;;24.88;100.00;100202.98;1727642;81;21022;-68
2022/08/17 00:36:14;;;;;;;22.17;15.18;;;;;;;24.91;100.00;100200.02;1722864;81;21093;-68
2022/08/17 00:38:42;;;;;;;27.82;15.43;;;;;;;24.94;100.00;100197.88;1715766;81;21089;-68
2022/08/17 00:41:16;;;;;;;26.42;14.95;;;;;;;24.94;100.00;100200.52;1721563;81;21076;-68
2022/08/17 00:43:57;;;;;;;21.42;14.95;;;;;;;24.99;100.00;100198.18;1723459;81;21010;-68
2022/08/17 00:46:32;;;;;;;22.30;14.25;;;;;;;25.08;100.00;100196.84;1738421;81;21013;-68
2022/08/17 00:48:59;;;;;;;22.15;15.08;;;;;;;25.12;100.00;100199.45;1751601;81;21025;-68
2022/08/17 00:51:47;;;;;;;23.22;14.40;;;;;;;25.09;100.00;100203.76;1733083;81;21687;-68
2022/08/17 00:54:26;;;;;;;23.22;14.55;;;;;;;25.10;100.00;100205.39;1738258;81;21081;-68
2022/08/17 00:57:10;;;;;;;23.90;14.23;;;;;;;24.98;100.00;100207.59;1739115;81;21042;-69
2022/08/17 00:59:43;;;;;;;21.07;14.07;;;;;;;24.90;100.00;100199.68;1743488;81;21045;-68
2022/08/17 01:02:13;;;;;;;23.77;14.13;;;;;;;24.94;100.00;100197.03;1750360;81;21018;-68
2022/08/17 01:04:45;;;;;;;20.05;13.75;;;;;;;24.91;100.00;100195.57;1730649;81;21589;-68
2022/08/17 01:07:14;;;;;;;23.33;14.23;;;;;;;24.86;100.00;100197.06;1742296;81;21033;-68
2022/08/17 01:09:43;;;;;;;20.90;13.55;;;;;;;24.86;100.00;100195.27;1742560;81;21069;-68
2022/08/17 01:12:11;;;;;;;25.32;14.25;;;;;;;24.88;100.00;100195.92;1731364;81;21069;-68
2022/08/17 01:14:39;;;;;;;25.32;14.00;;;;;;;24.77;100.00;100193.13;1714337;82;21064;-68
2022/08/17 01:17:08;;;;;;;27.52;15.10;;;;;;;24.71;100.00;100187.72;1718051;81;21167;-68
2022/08/17 01:19:38;;;;;;;18.98;14.40;;;;;;;24.63;100.00;100191.69;1737850;81;21042;-68
2022/08/17 01:22:15;;;;;;;21.95;14.18;;;;;;;24.56;100.00;100186.27;1735273;81;21072;-68
2022/08/17 01:24:47;;;;;;;25.57;14.25;;;;;;;24.55;100.00;100181.98;1734597;81;21083;-68
2022/08/17 01:27:16;;;;;;;21.57;14.50;;;;;;;24.50;100.00;100174.59;1728588;81;21517;-68
2022/08/17 01:29:49;;;;;;;22.50;13.75;;;;;;;24.49;100.00;100172.09;1728217;81;21053;-68
2022/08/17 01:32:18;;;;;;;23.52;14.35;;;;;;;24.47;100.00;100174.07;1744047;81;21070;-68
2022/08/17 01:34:46;;;;;;;20.27;13.88;;;;;;;24.31;100.00;100172.27;1740925;81;21032;-68
2022/08/17 01:37:14;;;;;;;23.07;13.10;;;;;;;24.32;100.00;100164.22;1721152;81;21041;-68
2022/08/17 01:39:53;;;;;;;21.20;13.65;;;;;;;24.31;100.00;100174.90;1725678;81;21069;-69
2022/08/17 01:42:40;;;;;;;20.72;13.43;;;;;;;24.30;100.00;100175.40;1754718;81;21060;-68
2022/08/17 01:45:21;;;;;;;20.00;14.00;;;;;;;24.27;100.00;100169.64;1730018;81;21066;-69
2022/08/17 01:47:50;;;;;;;20.05;13.62;;;;;;;24.22;100.00;100160.13;1723434;81;21078;-69
2022/08/17 01:50:25;;;;;;;19.17;12.80;;;;;;;24.15;100.00;100159.47;1732585;81;21588;-69
2022/08/17 01:53:07;;;;;;;24.72;13.55;;;;;;;24.16;100.00;100167.67;1727363;81;21054;-69
2022/08/17 01:55:55;;;;;;;21.20;13.00;;;;;;;24.12;100.00;100169.48;1720856;81;21749;-68
2022/08/17 01:58:22;;;;;;;21.20;13.30;;;;;;;24.12;100.00;100171.61;1723929;82;21569;-69
2022/08/17 02:00:53;;;;;;;19.60;12.88;;;;;;;24.07;100.00;100163.41;1748593;82;21022;-69
2022/08/17 02:03:23;;;;;;;20.48;12.60;;;;;;;24.05;100.00;100157.97;1728409;81;21006;-69
2022/08/17 02:05:52;;;;;;;23.55;13.45;;;;;;;23.95;100.00;100160.78;1732868;81;21037;-69
2022/08/17 02:08:21;;;;;;;22.55;13.90;;;;;;;23.95;100.00;100156.34;1726004;81;21085;-69
2022/08/17 02:10:50;;;;;;;22.95;13.05;;;;;;;23.95;100.00;100160.28;1729952;81;21104;-69
2022/08/17 02:13:19;;;;;;;21.87;13.38;;;;;;;23.92;100.00;100161.09;1746104;81;21037;-69
2022/08/17 02:15:47;;;;;;;19.75;13.40;;;;;;;23.89;100.00;100152.23;1734130;81;21100;-68
2022/08/17 02:18:15;;;;;;;20.32;12.85;;;;;;;23.83;100.00;100155.01;1721905;81;21090;-68
2022/08/17 02:20:42;;;;;;;22.93;13.05;;;;;;;23.81;100.00;100153.53;1736881;80;21041;-68
2022/08/17 02:23:12;;;;;;;21.75;13.70;;;;;;;23.66;100.00;100152.83;1718529;81;21042;-69
2022/08/17 02:25:42;;;;;;;22.40;13.30;;;;;;;23.67;100.00;100145.26;1736602;81;21076;-68
2022/08/17 02:28:11;;;;;;;20.17;12.45;;;;;;;23.65;100.00;100149.85;1721262;81;21053;-69
2022/08/17 02:30:39;;;;;;;22.82;13.85;;;;;;;23.66;100.00;100151.52;1735901;81;21022;-69
2022/08/17 02:33:07;;;;;;;21.65;13.62;;;;;;;23.60;100.00;100153.44;1718711;81;21010;-69
2022/08/17 02:35:36;;;;;;;25.75;13.75;;;;;;;23.53;100.00;100151.95;1724215;81;21078;-69
2022/08/17 02:38:05;;;;;;;22.40;13.40;;;;;;;23.54;100.00;100150.98;1743993;81;21128;-69
2022/08/17 02:40:33;;;;;;;20.62;12.58;;;;;;;23.57;100.00;100153.78;1743038;81;21057;-68
2022/08/17 02:43:01;;;;;;;23.02;13.22;;;;;;;23.53;100.00;100154.59;1750627;81;21062;-69
2022/08/17 02:45:29;;;;;;;21.65;13.80;;;;;;;23.53;100.00;100152.45;1739767;81;21034;-69
2022/08/17 02:47:56;;;;;;;27.70;13.72;;;;;;;23.53;100.00;100153.27;1739438;81;21006;-69
2022/08/17 02:50:25;;;;;;;26.05;13.93;;;;;;;23.53;100.00;100156.39;1732979;81;21069;-69
2022/08/17 02:52:53;;;;;;;23.18;14.90;;;;;;;23.54;100.00;100149.67;1718977;81;21038;-70
2022/08/17 02:55:25;;;;;;;26.93;14.60;;;;;;;23.55;100.00;100145.23;1718302;81;21085;-69
2022/08/17 02:57:53;;;;;;;26.00;14.33;;;;;;;23.60;100.00;100149.03;1735946;81;21038;-69
2022/08/17 03:00:25;;;;;;;26.05;13.78;;;;;;;23.55;100.00;100140.80;1742933;81;21038;-68
2022/08/17 03:02:53;;;;;;;25.23;14.40;;;;;;;23.56;100.00;100146.86;1732439;81;21038;-70
2022/08/17 03:05:25;;;;;;;25.60;14.58;;;;;;;23.52;100.00;100138.97;1733800;81;21589;-69
2022/08/17 03:07:53;;;;;;;23.90;14.33;;;;;;;23.49;100.00;100152.45;1740098;81;21030;-69
2022/08/17 03:10:21;;;;;;;27.60;15.05;;;;;;;23.34;100.00;100151.75;1726928;81;21085;-68
2022/08/17 03:12:51;;;;;;;21.35;14.07;;;;;;;23.34;100.00;100153.06;1722198;81;21112;-68
2022/08/17 03:15:22;;;;;;;22.05;15.15;;;;;;;23.46;100.00;100154.91;1728737;81;21577;-69
2022/08/17 03:17:51;;;;;;;28.73;14.93;;;;;;;23.48;100.00;100155.58;1727689;81;21529;-68
2022/08/17 03:20:20;;;;;;;29.75;15.55;;;;;;;23.56;100.00;100148.18;1743314;81;21513;-68
2022/08/17 03:22:50;;;;;;;26.48;15.95;;;;;;;23.65;100.00;100151.67;1736233;81;21034;-68
2022/08/17 03:25:22;;;;;;;26.50;15.93;;;;;;;23.63;100.00;100147.06;1725243;81;21008;-68
2022/08/17 03:27:50;;;;;;;27.62;16.20;;;;;;;23.60;100.00;100150.34;1748782;80;20993;-68
2022/08/17 03:30:18;;;;;;;29.80;16.12;;;;;;;23.60;100.00;100149.03;1776453;80;21548;-68
2022/08/17 03:32:49;;;;;;;30.05;17.42;;;;;;;23.69;100.00;100149.86;1754145;80;21053;-68
2022/08/17 03:35:20;;;;;;;35.75;17.05;;;;;;;23.72;100.00;100160.53;1749994;80;21518;-69
2022/08/17 03:37:48;;;;;;;26.07;15.63;;;;;;;23.77;100.00;100157.78;1764950;80;21107;-68
2022/08/17 03:40:16;;;;;;;21.05;14.87;;;;;;;23.80;100.00;100165.83;1762718;80;21006;-68
2022/08/17 03:42:43;;;;;;;27.73;15.45;;;;;;;23.79;100.00;100161.58;1767225;80;21041;-69
2022/08/17 03:45:15;;;;;;;24.27;16.82;;;;;;;23.83;100.00;100160.27;1759339;80;21038;-68
2022/08/17 03:58:50;;;;;;;28.00;18.50;;;;;;;23.99;100.00;100147.63;1768659;80;21015;-68
2022/08/17 04:01:19;;;;;;;25.52;17.42;;;;;;;24.15;100.00;100148.95;1771146;80;21037;-68
2022/08/17 04:03:46;;;;;;;27.13;18.32;;;;;;;24.15;100.00;100148.13;1758443;80;21545;-68
2022/08/17 04:06:14;;;;;;;25.27;18.52;;;;;;;24.27;100.00;100150.76;1756824;80;21065;-68
2022/08/17 04:08:42;;;;;;;32.53;17.75;;;;;;;24.42;100.00;100153.53;1748859;81;21029;-68
2022/08/17 04:11:09;;;;;;;28.62;18.87;;;;;;;24.47;100.00;100153.84;1734200;81;21057;-68
2022/08/17 04:13:37;;;;;;;29.67;18.60;;;;;;;24.57;100.00;100153.69;1730566;81;21136;-68
2022/08/17 04:16:05;;;;;;;26.15;17.80;;;;;;;24.76;100.00;100163.86;1752942;80;21580;-68
2022/08/17 04:18:33;;;;;;;32.85;19.30;;;;;;;24.84;100.00;100168.29;1758411;80;21073;-68
2022/08/17 04:21:00;;;;;;;27.60;18.00;;;;;;;24.86;100.00;100171.58;1767973;80;21124;-68
2022/08/17 04:23:32;;;;;;;22.82;17.17;;;;;;;25.03;100.00;100172.84;1745785;81;21083;-67
2022/08/17 04:25:57;;;;;;;25.55;17.98;;;;;;;25.15;100.00;100169.66;1734942;81;21021;-68
2022/08/17 04:28:24;;;;;;;34.33;18.02;;;;;;;25.28;100.00;100171.76;1721880;82;21182;-68
2022/08/17 04:30:51;;;;;;;27.25;17.52;;;;;;;25.38;100.00;100176.83;1728193;82;21052;-67
2022/08/17 04:33:23;;;;;;;24.70;17.23;;;;;;;25.37;100.00;100172.06;1750545;81;21079;-68
2022/08/17 04:35:58;;;;;;;28.35;17.67;;;;;;;25.41;100.00;100168.59;1731152;82;21097;-68
2022/08/17 04:38:29;;;;;;;27.37;17.32;;;;;;;25.47;100.00;100169.22;1753318;82;21043;-68
2022/08/17 04:43:45;;;;;;;23.92;17.60;;;;;;;25.60;100.00;100172.59;1730101;82;21040;-68
2022/08/17 04:46:15;;;;;;;35.30;18.17;;;;;;;25.74;100.00;100174.48;1738411;81;21004;-68
2022/08/17 04:48:47;;;;;;;28.17;17.50;;;;;;;25.89;100.00;100181.16;1723787;82;21055;-68
2022/08/17 04:51:31;;;;;;;29.20;16.50;;;;;;;25.99;100.00;100178.29;1738134;82;21079;-68
2022/08/17 04:54:04;;;;;;;23.83;17.60;;;;;;;26.09;100.00;100169.64;1753713;80;21063;-68
2022/08/17 04:56:32;;;;;;;28.77;17.40;;;;;;;26.32;100.00;100170.14;1738739;82;21040;-68
2022/08/17 04:59:04;;;;;;;23.62;16.32;;;;;;;26.36;100.00;100176.19;1738330;82;21036;-68
2022/08/17 05:01:34;;;;;;;33.42;17.37;;;;;;;26.56;100.00;100177.82;1729719;80;21012;-68
2022/08/17 05:04:06;;;;;;;29.02;18.57;;;;;;;26.56;100.00;100177.82;1731245;81;21046;-68
2022/08/17 05:06:34;;;;;;;30.80;18.55;;;;;;;26.70;100.00;100180.67;1739233;80;21006;-68
2022/08/17 05:09:02;;;;;;;35.28;17.67;;;;;;;26.65;100.00;100177.77;1719782;82;21019;-68
2022/08/17 05:11:30;;;;;;;26.73;18.10;;;;;;;26.71;100.00;100174.41;1722259;82;21606;-68
2022/08/17 05:13:58;;;;;;;26.48;18.15;;;;;;;26.76;100.00;100173.34;1734865;81;21609;-68
2022/08/17 05:16:28;;;;;;;27.75;18.30;;;;;;;26.90;100.00;100176.48;1740260;81;21102;-68
2022/08/17 05:18:57;;;;;;;26.95;19.67;;;;;;;27.04;100.00;100176.67;1732060;81;20961;-68
2022/08/17 05:21:26;;;;;;;38.35;20.77;;;;;;;27.21;100.00;100178.61;1720255;82;21005;-68
2022/08/17 05:23:54;;;;;;;38.00;19.10;;;;;;;27.30;100.00;100177.55;1723882;82;21029;-68
2022/08/17 05:26:21;;;;;;;40.08;27.70;;;;;;;27.27;100.00;100174.78;1737815;82;21083;-68
2022/08/17 05:28:49;;;;;;;31.12;19.52;;;;;;;27.40;100.00;100172.78;1726095;82;21142;-67
2022/08/17 05:31:16;;;;;;;57.60;36.98;;;;;;;27.53;100.00;100175.56;1731215;82;20975;-68
2022/08/17 05:33:44;;;;;;;34.20;17.77;;;;;;;27.64;100.00;100178.75;1736125;81;21020;-68
2022/08/17 05:36:14;;;;;;;31.87;17.45;;;;;;;27.70;100.00;100182.77;1732884;82;21029;-68
2022/08/17 05:38:42;;;;;;;29.65;17.02;;;;;;;27.82;100.00;100183.58;1740828;80;21570;-68
2022/08/17 05:41:09;;;;;;;30.90;17.02;;;;;;;27.82;100.00;100184.91;1732680;81;21056;-68
2022/08/17 05:43:40;;;;;;;33.05;17.23;;;;;;;28.02;100.00;100187.30;1735102;82;21048;-68
2022/08/17 05:46:26;;;;;;;28.45;18.00;;;;;;;28.22;100.00;100183.98;1737893;80;21029;-68
2022/08/17 05:49:07;;;;;;;34.58;17.20;;;;;;;28.33;100.00;100183.48;1728099;82;21145;-68
2022/08/17 05:51:59;;;;;;;30.25;16.10;;;;;;;28.45;100.00;100176.64;1738664;81;21076;-68
2022/08/17 05:55:00;;;;;;;32.75;15.85;;;;;;;28.60;100.00;100175.75;1746330;81;21099;-68
2022/08/17 05:57:58;;;;;;;28.83;15.60;;;;;;;28.71;100.00;100172.06;1732167;81;21579;-68
2022/08/17 06:00:49;;;;;;;35.20;15.98;;;;;;;28.88;100.00;100171.74;1735854;80;21087;-68
2022/08/17 06:03:37;;;;;;;33.20;15.83;;;;;;;28.96;100.00;100176.36;1693608;82;21508;-68
2022/08/17 06:06:09;;;;;;;25.25;15.40;;;;;;;29.02;100.00;100173.95;1746957;80;21002;-69
2022/08/17 06:08:51;;;;;;;33.25;15.05;;;;;;;29.13;100.00;100174.22;1746514;82;21138;-68
2022/08/17 06:11:40;;;;;;;29.85;15.08;;;;;;;29.16;100.00;100182.31;1736526;82;21010;-68
2022/08/17 06:14:41;;;;;;;32.45;14.63;;;;;;;29.24;100.00;100187.92;1705345;83;21055;-68
2022/08/17 06:17:13;;;;;;;41.20;16.57;;;;;;;29.44;100.00;100176.06;1728795;82;21051;-68
2022/08/17 06:19:53;;;;;;;31.30;14.65;;;;;;;29.58;100.00;100180.91;1734359;82;21070;-68
2022/08/17 06:22:23;;;;;;;35.73;15.15;;;;;;;29.60;100.00;100178.35;1720780;82;21031;-68
2022/08/17 06:24:55;;;;;;;31.05;15.20;;;;;;;29.71;100.00;100185.77;1730667;82;21542;-68
2022/08/17 06:27:39;;;;;;;32.08;15.15;;;;;;;29.85;100.00;100176.52;1731794;82;21036;-68
2022/08/17 06:30:12;;;;;;;24.92;13.40;;;;;;;30.01;100.00;100180.10;1736668;81;21045;-68
2022/08/17 06:32:43;;;;;;;31.70;17.67;;;;;;;30.07;100.00;100176.63;1711393;82;21055;-68
2022/08/17 06:35:14;;;;;;;36.05;14.05;;;;;;;30.23;100.00;100175.90;1736888;81;21129;-68
2022/08/17 06:38:01;;;;;;;26.82;12.73;;;;;;;30.25;100.00;100175.19;1734440;82;21046;-68
2022/08/17 06:40:58;;;;;;;24.32;13.88;;;;;;;30.19;100.00;100172.83;1726888;82;20980;-68
2022/08/17 06:44:17;;;;;;;20.00;12.18;;;;;;;30.28;100.00;100169.48;1680997;83;21383;-68
2022/08/17 06:46:49;;;;;;;27.07;11.97;;;;;;;30.41;100.00;100173.47;1676795;83;21587;-67
2022/08/17 06:49:27;;;;;;;32.60;13.50;;;;;;;30.52;100.00;100172.05;1719429;82;21121;-67
2022/08/17 06:52:03;;;;;;;24.77;12.40;;;;;;;30.60;100.00;100169.66;1676972;82;21113;-68
2022/08/17 06:54:58;;;;;;;24.92;11.68;;;;;;;30.63;100.00;100171.39;1711690;82;21022;-68
2022/08/17 06:57:32;;;;;;;23.05;12.20;;;;;;;30.71;100.00;100170.36;1737838;82;21604;-68
2022/08/17 07:00:13;;;;;;;20.55;12.03;;;;;;;30.83;100.00;100167.88;1736231;80;21042;-68
2022/08/17 07:03:10;;;;;;;22.27;12.07;;;;;;;31.01;100.00;100168.05;1730845;82;21048;-67
2022/08/17 07:05:53;;;;;;;29.12;11.55;;;;;;;31.09;100.00;100167.81;1711965;82;21087;-67
2022/08/17 07:08:42;;;;;;;25.50;11.22;;;;;;;31.17;100.00;100168.61;1752171;82;21052;-68
2022/08/17 07:11:18;;;;;;;24.50;12.05;;;;;;;31.25;100.00;100161.20;1735094;81;21698;-68
2022/08/17 07:14:35;;;;;;;23.12;11.20;;;;;;;31.23;100.00;100171.23;1726464;82;21599;-68
2022/08/17 07:17:10;;;;;;;26.62;10.63;;;;;;;31.44;100.00;100170.13;1721765;82;21040;-68
2022/08/17 07:19:42;;;;;;;23.55;11.03;;;;;;;31.52;100.00;100165.07;1721551;82;21474;-68
2022/08/17 07:22:47;;;;;;;21.97;11.00;;;;;;;31.49;100.00;100172.13;1748905;82;21062;-68
2022/08/17 07:25:17;;;;;;;24.30;10.85;;;;;;;31.59;98.03;100163.69;1730027;82;21047;-68
2022/08/17 07:27:51;;;;;;;23.32;11.53;;;;;;;31.61;97.36;100162.47;1736615;81;21543;-68
2022/08/17 07:30:32;;;;;;;26.62;10.82;;;;;;;31.74;97.18;100162.37;1741389;80;21051;-68
2022/08/17 07:33:10;;;;;;;18.90;10.00;;;;;;;31.91;100.00;100163.16;1715317;82;21586;-68
2022/08/17 07:35:40;;;;;;;17.75;9.38;;;;;;;31.98;94.71;100155.95;1731786;81;21119;-68
2022/08/17 07:38:18;;;;;;;18.65;8.93;;;;;;;32.03;90.63;100164.12;1731856;82;21037;-69
2022/08/17 07:40:58;;;;;;;15.43;8.95;;;;;;;31.97;87.19;100167.62;1744465;80;21044;-68
2022/08/17 07:43:42;;;;;;;12.78;8.68;;;;;;;31.96;89.30;100168.67;1731059;82;21180;-69
2022/08/17 07:49:24;;;;;;;23.90;10.20;;;;;;;32.58;89.61;100167.44;1732467;81;21078;-69
2022/08/17 07:51:57;;;;;;;17.73;10.40;;;;;;;32.63;88.30;100162.80;1723984;81;21117;-69
2022/08/17 07:54:36;;;;;;;17.62;9.63;;;;;;;32.73;87.13;100166.56;1722511;81;21499;-68
2022/08/17 07:57:14;;;;;;;20.02;10.82;;;;;;;32.98;87.64;100156.86;1730450;81;21087;-68
2022/08/17 08:00:01;;;;;;;19.90;10.18;;;;;;;33.29;86.55;100155.86;1737831;82;21046;-69
2022/08/17 08:02:44;;;;;;;15.63;9.40;;;;;;;33.40;83.81;100156.97;1737531;82;21070;-69
2022/08/17 08:05:25;;;;;;;13.62;9.15;;;;;;;33.38;83.60;100151.05;1724645;82;21057;-69
2022/08/17 08:07:59;;;;;;;16.20;9.13;;;;;;;33.11;81.41;100152.21;1723637;82;21115;-69
2022/08/17 08:10:37;;;;;;;19.12;9.15;;;;;;;33.16;81.67;100156.86;1737629;82;21542;-69
2022/08/17 08:13:24;;;;;;;17.57;9.38;;;;;;;33.40;81.76;100154.30;1733421;82;21046;-68
2022/08/17 08:16:14;;;;;;;14.05;8.75;;;;;;;33.38;79.31;100155.05;1734931;81;21117;-68
2022/08/17 08:18:46;;;;;;;16.93;9.20;;;;;;;33.58;80.14;100148.06;1722360;82;21024;-68
2022/08/17 08:21:41;;;;;;;15.40;9.98;;;;;;;33.66;79.10;100145.93;1729031;82;21575;-68
2022/08/17 08:24:37;;;;;;;13.32;8.38;;;;;;;33.72;77.77;100146.34;1734070;82;21018;-68
2022/08/17 08:27:26;;;;;;;13.03;8.05;;;;;;;33.90;75.64;100145.45;1725663;82;21054;-68
2022/08/17 08:30:07;;;;;;;15.60;8.13;;;;;;;33.77;74.28;100138.17;1733410;82;21029;-68
2022/08/17 08:33:16;;;;;;;15.93;8.38;;;;;;;33.71;72.71;100134.55;1737320;81;21109;-68
2022/08/17 08:35:54;;;;;;;14.65;8.45;;;;;;;33.93;71.45;100132.15;1737940;82;21049;-68
2022/08/17 08:38:45;;;;;;;13.25;8.50;;;;;;;34.05;74.43;100124.95;1712442;81;21614;-68
2022/08/17 08:41:29;;;;;;;11.83;8.13;;;;;;;34.27;71.66;100125.75;1715901;81;21138;-68
2022/08/17 08:44:07;;;;;;;12.00;7.83;;;;;;;34.27;70.03;100123.08;1742891;82;21053;-68
2022/08/17 08:46:43;;;;;;;11.20;8.33;;;;;;;34.17;69.84;100124.98;1732927;81;21620;-68
2022/08/17 08:49:24;;;;;;;12.55;8.15;;;;;;;34.23;69.06;100122.72;1731800;81;21118;-68
2022/08/17 08:51:56;;;;;;;13.58;8.60;;;;;;;34.21;65.77;100127.48;1734442;82;21097;-68
2022/08/17 08:54:48;;;;;;;15.75;9.03;;;;;;;34.34;67.66;100125.09;1731220;82;21085;-68
2022/08/17 08:57:35;;;;;;;16.62;8.75;;;;;;;34.26;70.02;100118.77;1741497;81;21020;-68
2022/08/17 09:00:22;;;;;;;15.83;9.05;;;;;;;34.29;72.44;100124.45;1711768;82;21548;-69
2022/08/17 09:03:32;;;;;;;14.63;9.10;;;;;;;34.56;71.97;100116.47;1732689;81;21087;-69
2022/08/17 09:06:29;;;;;;;12.95;8.73;;;;;;;34.49;72.15;100116.07;1742283;80;21480;-68
2022/08/17 09:09:29;;;;;;;11.40;7.87;;;;;;;33.81;70.93;100117.45;1750071;80;21091;-69
2022/08/17 09:12:37;;;;;;;14.38;8.93;;;;;;;33.76;72.87;100109.33;1688537;83;21058;-69
2022/08/17 09:15:16;;;;;;;12.30;8.90;;;;;;;33.94;72.66;100119.08;1666876;83;21080;-69
2022/08/17 09:18:06;;;;;;;17.15;9.90;;;;;;;33.85;74.21;100111.94;1738499;82;21029;-69
2022/08/17 09:20:46;;;;;;;18.00;9.53;;;;;;;34.00;73.18;100117.34;1692516;83;21060;-69
2022/08/17 09:23:34;;;;;;;13.48;8.90;;;;;;;33.83;72.86;100118.03;1733435;82;21576;-69
2022/08/17 09:26:11;;;;;;;13.95;9.80;;;;;;;33.61;73.29;100117.77;1732377;82;21065;-69
2022/08/17 09:28:43;;;;;;;16.42;11.43;;;;;;;33.45;73.83;100118.39;1734548;81;21531;-70
2022/08/17 09:31:15;;;;;;;16.25;9.38;;;;;;;33.46;74.66;100112.03;1731228;82;20996;-70
2022/08/17 09:33:47;;;;;;;13.97;9.73;;;;;;;33.35;73.51;100112.80;1733067;82;20976;-70
2022/08/17 09:36:38;;;;;;;17.37;9.38;;;;;;;33.57;74.25;100113.89;1734292;82;21736;-70
2022/08/17 09:39:16;;;;;;;14.98;8.78;;;;;;;33.66;72.95;100117.06;1737032;82;21004;-69
2022/08/17 09:41:54;;;;;;;15.93;9.45;;;;;;;33.60;71.85;100121.45;1744528;80;21039;-69
2022/08/17 09:44:45;;;;;;;12.73;9.48;;;;;;;33.81;71.72;100120.11;1707247;82;21096;-69
2022/08/17 09:47:46;;;;;;;14.87;9.58;;;;;;;33.98;73.67;100117.56;1740599;81;21107;-70
2022/08/17 09:50:26;;;;;;;12.75;9.20;;;;;;;33.69;75.34;100113.42;1734026;82;21070;-69
2022/08/17 09:52:58;;;;;;;14.78;10.05;;;;;;;33.58;74.38;100114.20;1728939;82;21024;-69
2022/08/17 09:55:40;;;;;;;12.78;9.95;;;;;;;33.63;75.09;100110.87;1724867;82;21104;-69
2022/08/17 09:58:30;;;;;;;13.95;9.13;;;;;;;33.81;74.52;100113.97;1717631;80;21056;-69
2022/08/17 10:01:19;;;;;;;14.50;9.53;;;;;;;33.97;72.33;100116.48;1737604;82;21020;-69
2022/08/17 10:04:19;;;;;;;13.98;8.80;;;;;;;34.17;72.95;100108.16;1735837;81;21051;-69
2022/08/17 10:06:56;;;;;;;13.48;8.90;;;;;;;34.22;69.76;100117.61;1722654;82;21014;-69
2022/08/17 10:10:10;;;;;;;15.05;8.98;;;;;;;34.38;67.95;100112.08;1727846;81;21053;-69
2022/08/17 10:12:53;;;;;;;16.93;9.15;;;;;;;34.64;67.47;100108.08;1693062;82;21043;-69
2022/08/17 10:15:50;;;;;;;12.82;9.08;;;;;;;34.89;67.10;100111.80;1731943;82;21096;-70
2022/08/17 10:18:33;;;;;;;13.58;9.10;;;;;;;35.14;66.78;100118.67;1731783;81;21005;-69
2022/08/17 10:26:44;;;;;;;12.20;8.48;;;;;;;35.67;63.54;100119.67;1645061;86;21016;-71
2022/08/17 10:29:16;;;;;;;11.53;8.35;;;;;;;35.78;65.42;100125.19;1691655;82;20972;-70
2022/08/17 10:31:59;;;;;;;13.03;8.23;;;;;;;35.86;64.79;100126.11;1749189;82;20984;-70
2022/08/17 10:34:57;;;;;;;11.93;8.60;;;;;;;35.85;64.54;100128.49;1729687;82;21065;-69
2022/08/17 10:38:06;;;;;;;11.40;7.80;;;;;;;35.73;67.60;100129.11;1740919;80;21074;-69
2022/08/17 10:40:56;;;;;;;14.85;8.40;;;;;;;35.96;66.79;100120.11;1643241;86;21065;-70
2022/08/17 10:43:50;;;;;;;11.88;8.10;;;;;;;36.01;62.45;100125.02;1648050;86;21548;-69
2022/08/17 10:47:00;;;;;;;15.10;8.80;;;;;;;36.04;63.68;100123.70;1668419;80;20962;-69
2022/08/17 10:49:37;;;;;;;13.00;8.48;;;;;;;35.50;62.50;100124.16;1739127;82;21106;-68
2022/08/17 10:52:29;;;;;;;14.03;8.25;;;;;;;35.16;64.01;100113.92;1729399;81;21091;-68
2022/08/17 10:55:07;;;;;;;12.35;8.30;;;;;;;35.03;66.00;100115.01;1727335;81;21101;-69
2022/08/17 10:57:43;;;;;;;10.98;8.43;;;;;;;34.93;66.31;100110.80;1725297;81;21074;-69
2022/08/17 11:00:43;;;;;;;15.05;10.55;;;;;;;35.15;64.94;100106.44;1711934;82;20992;-69
2022/08/17 11:03:20;;;;;;;14.98;9.80;;;;;;;35.10;62.32;100103.12;1728091;81;21107;-70
2022/08/17 11:05:58;;;;;;;11.20;8.80;;;;;;;35.24;65.36;100104.17;1712063;82;21013;-69
2022/08/17 11:08:37;;;;;;;12.53;8.40;;;;;;;35.42;62.68;100104.48;1731894;81;21089;-70
2022/08/17 11:11:34;;;;;;;13.78;8.43;;;;;;;35.42;60.89;100101.27;1736929;82;21069;-70
2022/08/17 11:14:36;;;;;;;11.57;8.83;;;;;;;34.95;58.46;100092.13;1721645;81;21766;-69
2022/08/17 11:17:49;;;;;;;13.95;7.50;;;;;;;34.94;60.05;100098.54;1733999;81;21010;-70
2022/08/17 11:20:55;;;;;;;8.88;7.30;;;;;;;34.51;61.22;100095.27;1738116;82;21008;-69
2022/08/17 11:23:53;;;;;;;9.40;7.22;;;;;;;34.35;57.93;100091.98;1738131;82;20995;-69
2022/08/17 11:26:31;;;;;;;12.45;8.15;;;;;;;34.61;59.26;100087.98;1736241;82;21026;-69
2022/08/17 11:29:19;;;;;;;8.98;7.65;;;;;;;34.69;60.28;100082.80;1727234;80;21767;-69
2022/08/17 11:32:04;;;;;;;13.60;8.08;;;;;;;34.95;59.81;100073.41;1725890;82;21043;-67
2022/08/17 11:34:33;;;;;;;11.85;7.97;;;;;;;35.22;60.21;100074.17;1719817;82;21031;-67
2022/08/17 11:37:11;;;;;;;11.57;8.33;;;;;;;35.40;56.93;100077.95;1738545;81;21074;-69
2022/08/17 11:40:05;;;;;;;13.00;8.18;;;;;;;35.43;58.92;100072.66;1734646;81;21073;-69
2022/08/17 11:42:51;;;;;;;13.38;7.78;;;;;;;35.40;57.95;100071.27;1734112;82;21042;-68
2022/08/17 11:45:50;;;;;;;8.63;7.80;;;;;;;35.45;59.29;100074.04;1720623;81;21047;-68
2022/08/17 11:52:04;;;;;;;11.00;8.10;;;;;;;35.74;55.23;100074.52;1722064;82;21115;-68
2022/08/17 11:54:44;;;;;;;11.70;8.00;;;;;;;35.63;54.74;100067.63;1728255;81;21116;-68
2022/08/17 11:57:32;;;;;;;11.83;9.15;;;;;;;35.91;57.57;100069.95;1732493;81;21018;-68
2022/08/17 12:00:09;;;;;;;12.82;9.03;;;;;;;35.89;58.40;100065.38;1737671;81;21153;-68
2022/08/17 12:02:42;;;;;;;11.83;8.65;;;;;;;35.59;61.83;100065.16;1723507;81;21097;-68
2022/08/17 12:05:28;;;;;;;;;;;;;;;35.68;62.01;100069.60;1695516;83;21023;-68
2022/08/17 12:08:03;;;;;;;13.58;8.83;;;;;;;35.39;61.54;100060.83;1723802;82;20170;-69
2022/08/17 12:10:35;;;;;;;12.10;9.18;;;;;;;35.14;62.51;100059.81;1709591;82;21051;-69
2022/08/17 12:13:07;;;;;;;10.03;7.97;;;;;;;34.93;62.15;100062.66;1718838;82;21033;-68
2022/08/17 12:15:48;;;;;;;12.33;8.38;;;;;;;34.74;63.61;100057.51;1725653;82;22187;-69
2022/08/17 12:18:28;;;;;;;9.48;8.48;;;;;;;35.18;62.73;100052.96;1727366;82;21022;-69
2022/08/17 12:21:37;;;;;;;10.53;8.65;;;;;;;35.68;60.56;100051.66;1723989;82;21027;-68